sensor_id;sensor_type;location;lat;lon;timestamp;P1;durP1;ratioP1;P2;durP2;ratioP2
41923;SDS011;27613;48.116;11.656;2022-09-09T00:04:20;2.95;;;1.48;;
41923;SDS011;27613;48.116;11.656;2022-09-09T00:07:01;2.17;;;1.10;;
41923;SDS011;27613;48.116;11.656;2022-09-09T00:09:29;3.90;;;1.50;;
41923;SDS011;27613;48.116;11.656;2022-09-09T00:14:57;1.70;;;1.27;;
41923;SDS011;27613;48.116;11.656;2022-09-09T00:17:35;1.73;;;1.10;;
41923;SDS011;27613;48.116;11.656;2022-09-09T00:23:20;7.25;;;1.35;;
41923;SDS011;27613;48.116;11.656;2022-09-09T00:31:32;2.83;;;1.20;;
41923;SDS011;27613;48.116;11.656;2022-09-09T00:34:00;2.03;;;1.23;;
41923;SDS011;27613;48.116;11.656;2022-09-09T00:36:38;3.08;;;1.30;;
41923;SDS011;27613;48.116;11.656;2022-09-09T00:39:05;3.30;;;1.45;;
41923;SDS011;27613;48.116;11.656;2022-09-09T00:44:12;4.93;;;2.10;;
41923;SDS011;27613;48.116;11.656;2022-09-09T00:46:55;2.10;;;1.35;;
41923;SDS011;27613;48.116;11.656;2022-09-09T00:55:24;1.70;;;1.10;;
41923;SDS011;27613;48.116;11.656;2022-09-09T00:58:06;2.10;;;1.02;;
41923;SDS011;27613;48.116;11.656;2022-09-09T01:03:36;3.08;;;1.10;;
41923;SDS011;27613;48.116;11.656;2022-09-09T01:12:24;2.53;;;1.05;;
41923;SDS011;27613;48.116;11.656;2022-09-09T01:14:51;2.63;;;1.00;;
41923;SDS011;27613;48.116;11.656;2022-09-09T01:17:26;2.35;;;1.20;;
41923;SDS011;27613;48.116;11.656;2022-09-09T01:20:04;5.90;;;1.20;;
41923;SDS011;27613;48.116;11.656;2022-09-09T01:22:38;3.17;;;1.40;;
41923;SDS011;27613;48.116;11.656;2022-09-09T01:27:48;1.63;;;0.85;;
41923;SDS011;27613;48.116;11.656;2022-09-09T01:30:16;4.53;;;1.25;;
41923;SDS011;27613;48.116;11.656;2022-09-09T01:32:47;2.78;;;1.25;;
41923;SDS011;27613;48.116;11.656;2022-09-09T01:35:19;2.75;;;1.55;;
41923;SDS011;27613;48.116;11.656;2022-09-09T01:37:55;2.20;;;1.17;;
41923;SDS011;27613;48.116;11.656;2022-09-09T01:40:20;2.70;;;1.40;;
41923;SDS011;27613;48.116;11.656;2022-09-09T01:42:46;1.30;;;0.95;;
41923;SDS011;27613;48.116;11.656;2022-09-09T01:45:12;3.10;;;1.05;;
41923;SDS011;27613;48.116;11.656;2022-09-09T01:47:38;1.75;;;1.20;;
41923;SDS011;27613;48.116;11.656;2022-09-09T01:50:03;2.05;;;1.00;;
41923;SDS011;27613;48.116;11.656;2022-09-09T01:52:30;3.08;;;1.30;;
41923;SDS011;27613;48.116;11.656;2022-09-09T01:54:57;2.47;;;1.08;;
41923;SDS011;27613;48.116;11.656;2022-09-09T01:57:58;1.77;;;1.13;;
41923;SDS011;27613;48.116;11.656;2022-09-09T02:00:33;2.05;;;1.00;;
41923;SDS011;27613;48.116;11.656;2022-09-09T02:03:05;2.33;;;1.25;;
41923;SDS011;27613;48.116;11.656;2022-09-09T02:05:55;2.45;;;1.10;;
41923;SDS011;27613;48.116;11.656;2022-09-09T02:08:36;2.15;;;1.42;;
41923;SDS011;27613;48.116;11.656;2022-09-09T02:11:16;2.17;;;1.02;;
41923;SDS011;27613;48.116;11.656;2022-09-09T02:13:47;3.10;;;1.10;;
41923;SDS011;27613;48.116;11.656;2022-09-09T02:21:18;2.88;;;1.00;;
41923;SDS011;27613;48.116;11.656;2022-09-09T02:23:44;3.05;;;1.10;;
41923;SDS011;27613;48.116;11.656;2022-09-09T02:26:12;1.50;;;1.00;;
41923;SDS011;27613;48.116;11.656;2022-09-09T02:28:45;2.97;;;0.85;;
41923;SDS011;27613;48.116;11.656;2022-09-09T02:31:13;2.80;;;1.20;;
41923;SDS011;27613;48.116;11.656;2022-09-09T02:33:53;0.93;;;0.80;;
41923;SDS011;27613;48.116;11.656;2022-09-09T02:36:23;3.50;;;1.00;;
41923;SDS011;27613;48.116;11.656;2022-09-09T02:38:51;3.35;;;1.30;;
41923;SDS011;27613;48.116;11.656;2022-09-09T02:41:35;2.70;;;1.45;;
41923;SDS011;27613;48.116;11.656;2022-09-09T02:44:10;1.60;;;1.13;;
41923;SDS011;27613;48.116;11.656;2022-09-09T02:49:17;3.20;;;1.30;;
41923;SDS011;27613;48.116;11.656;2022-09-09T02:54:41;1.77;;;0.98;;
41923;SDS011;27613;48.116;11.656;2022-09-09T02:57:19;1.75;;;1.20;;
41923;SDS011;27613;48.116;11.656;2022-09-09T02:59:48;2.03;;;1.13;;
41923;SDS011;27613;48.116;11.656;2022-09-09T03:02:15;2.45;;;1.15;;
41923;SDS011;27613;48.116;11.656;2022-09-09T03:04:40;2.92;;;0.95;;
41923;SDS011;27613;48.116;11.656;2022-09-09T03:07:09;9.00;;;1.27;;
41923;SDS011;27613;48.116;11.656;2022-09-09T03:09:35;1.77;;;1.00;;
41923;SDS011;27613;48.116;11.656;2022-09-09T03:12:01;2.20;;;0.85;;
41923;SDS011;27613;48.116;11.656;2022-09-09T03:14:29;2.47;;;1.60;;
41923;SDS011;27613;48.116;11.656;2022-09-09T03:16:55;0.95;;;0.85;;
41923;SDS011;27613;48.116;11.656;2022-09-09T03:19:22;1.58;;;0.90;;
41923;SDS011;27613;48.116;11.656;2022-09-09T03:21:48;2.20;;;0.93;;
41923;SDS011;27613;48.116;11.656;2022-09-09T03:24:14;2.85;;;1.13;;
41923;SDS011;27613;48.116;11.656;2022-09-09T03:26:40;2.30;;;1.30;;
41923;SDS011;27613;48.116;11.656;2022-09-09T03:29:09;3.20;;;1.10;;
41923;SDS011;27613;48.116;11.656;2022-09-09T03:31:37;1.73;;;1.00;;
41923;SDS011;27613;48.116;11.656;2022-09-09T03:34:03;2.13;;;1.27;;
41923;SDS011;27613;48.116;11.656;2022-09-09T03:36:29;2.55;;;1.27;;
41923;SDS011;27613;48.116;11.656;2022-09-09T03:38:55;2.10;;;1.20;;
41923;SDS011;27613;48.116;11.656;2022-09-09T03:41:21;2.03;;;1.17;;
41923;SDS011;27613;48.116;11.656;2022-09-09T03:43:49;3.05;;;1.05;;
41923;SDS011;27613;48.116;11.656;2022-09-09T03:46:15;2.00;;;1.00;;
41923;SDS011;27613;48.116;11.656;2022-09-09T03:48:42;3.33;;;1.35;;
41923;SDS011;27613;48.116;11.656;2022-09-09T03:51:07;2.50;;;1.05;;
41923;SDS011;27613;48.116;11.656;2022-09-09T03:53:33;1.25;;;1.05;;
41923;SDS011;27613;48.116;11.656;2022-09-09T03:55:59;3.28;;;1.35;;
41923;SDS011;27613;48.116;11.656;2022-09-09T03:58:25;5.43;;;1.40;;
41923;SDS011;27613;48.116;11.656;2022-09-09T04:00:56;2.95;;;0.98;;
41923;SDS011;27613;48.116;11.656;2022-09-09T04:03:22;3.65;;;1.25;;
41923;SDS011;27613;48.116;11.656;2022-09-09T04:05:49;1.25;;;1.00;;
41923;SDS011;27613;48.116;11.656;2022-09-09T04:08:19;1.63;;;1.13;;
41923;SDS011;27613;48.116;11.656;2022-09-09T04:10:46;2.58;;;1.40;;
41923;SDS011;27613;48.116;11.656;2022-09-09T04:13:12;2.17;;;1.00;;
41923;SDS011;27613;48.116;11.656;2022-09-09T04:15:40;2.03;;;1.00;;
41923;SDS011;27613;48.116;11.656;2022-09-09T04:18:05;1.42;;;1.10;;
41923;SDS011;27613;48.116;11.656;2022-09-09T04:20:31;3.78;;;1.05;;
41923;SDS011;27613;48.116;11.656;2022-09-09T04:22:57;0.98;;;0.80;;
41923;SDS011;27613;48.116;11.656;2022-09-09T04:25:23;3.35;;;1.00;;
41923;SDS011;27613;48.116;11.656;2022-09-09T04:27:58;1.98;;;1.17;;
41923;SDS011;27613;48.116;11.656;2022-09-09T04:30:23;2.25;;;1.05;;
41923;SDS011;27613;48.116;11.656;2022-09-09T04:32:49;2.60;;;1.02;;
41923;SDS011;27613;48.116;11.656;2022-09-09T04:35:15;1.27;;;0.93;;
41923;SDS011;27613;48.116;11.656;2022-09-09T04:37:41;2.08;;;1.10;;
41923;SDS011;27613;48.116;11.656;2022-09-09T04:40:07;1.65;;;0.90;;
41923;SDS011;27613;48.116;11.656;2022-09-09T04:42:38;2.47;;;1.05;;
41923;SDS011;27613;48.116;11.656;2022-09-09T04:45:04;3.45;;;1.20;;
41923;SDS011;27613;48.116;11.656;2022-09-09T04:47:31;2.15;;;1.05;;
41923;SDS011;27613;48.116;11.656;2022-09-09T04:49:57;3.83;;;1.10;;
41923;SDS011;27613;48.116;11.656;2022-09-09T04:52:23;1.75;;;0.85;;
41923;SDS011;27613;48.116;11.656;2022-09-09T04:54:49;2.58;;;1.23;;
41923;SDS011;27613;48.116;11.656;2022-09-09T04:57:14;2.60;;;1.20;;
41923;SDS011;27613;48.116;11.656;2022-09-09T04:59:40;2.25;;;0.88;;
41923;SDS011;27613;48.116;11.656;2022-09-09T05:02:05;2.30;;;1.13;;
41923;SDS011;27613;48.116;11.656;2022-09-09T05:04:31;3.75;;;1.30;;
41923;SDS011;27613;48.116;11.656;2022-09-09T05:06:58;3.20;;;1.02;;
41923;SDS011;27613;48.116;11.656;2022-09-09T05:09:24;2.22;;;1.17;;
41923;SDS011;27613;48.116;11.656;2022-09-09T05:11:50;4.05;;;2.10;;
41923;SDS011;27613;48.116;11.656;2022-09-09T05:14:16;1.88;;;1.05;;
41923;SDS011;27613;48.116;11.656;2022-09-09T05:16:42;2.17;;;1.15;;
41923;SDS011;27613;48.116;11.656;2022-09-09T05:19:09;3.40;;;1.30;;
41923;SDS011;27613;48.116;11.656;2022-09-09T05:21:35;3.55;;;1.48;;
41923;SDS011;27613;48.116;11.656;2022-09-09T05:24:01;3.65;;;1.33;;
41923;SDS011;27613;48.116;11.656;2022-09-09T05:26:26;3.50;;;1.80;;
41923;SDS011;27613;48.116;11.656;2022-09-09T05:28:54;2.72;;;1.55;;
41923;SDS011;27613;48.116;11.656;2022-09-09T05:31:20;3.70;;;1.27;;
41923;SDS011;27613;48.116;11.656;2022-09-09T05:33:46;2.47;;;1.25;;
41923;SDS011;27613;48.116;11.656;2022-09-09T05:36:18;1.95;;;0.93;;
41923;SDS011;27613;48.116;11.656;2022-09-09T05:38:45;1.63;;;1.02;;
41923;SDS011;27613;48.116;11.656;2022-09-09T05:41:11;2.60;;;1.27;;
41923;SDS011;27613;48.116;11.656;2022-09-09T05:43:38;1.80;;;0.82;;
41923;SDS011;27613;48.116;11.656;2022-09-09T05:46:11;4.05;;;1.67;;
41923;SDS011;27613;48.116;11.656;2022-09-09T05:48:39;1.92;;;1.20;;
41923;SDS011;27613;48.116;11.656;2022-09-09T05:51:08;3.35;;;1.27;;
41923;SDS011;27613;48.116;11.656;2022-09-09T05:53:40;6.47;;;1.23;;
41923;SDS011;27613;48.116;11.656;2022-09-09T05:56:07;3.20;;;1.20;;
41923;SDS011;27613;48.116;11.656;2022-09-09T05:58:39;4.15;;;1.20;;
41923;SDS011;27613;48.116;11.656;2022-09-09T06:01:08;3.45;;;1.20;;
41923;SDS011;27613;48.116;11.656;2022-09-09T06:03:36;2.03;;;1.00;;
41923;SDS011;27613;48.116;11.656;2022-09-09T06:06:04;3.20;;;1.30;;
41923;SDS011;27613;48.116;11.656;2022-09-09T06:08:32;3.70;;;1.30;;
41923;SDS011;27613;48.116;11.656;2022-09-09T06:11:06;3.63;;;1.55;;
41923;SDS011;27613;48.116;11.656;2022-09-09T06:13:32;2.65;;;1.13;;
41923;SDS011;27613;48.116;11.656;2022-09-09T06:15:58;6.95;;;1.52;;
41923;SDS011;27613;48.116;11.656;2022-09-09T06:18:24;5.18;;;1.65;;
41923;SDS011;27613;48.116;11.656;2022-09-09T06:20:54;3.70;;;1.00;;
41923;SDS011;27613;48.116;11.656;2022-09-09T06:23:21;5.20;;;1.25;;
41923;SDS011;27613;48.116;11.656;2022-09-09T06:25:46;2.28;;;1.13;;
41923;SDS011;27613;48.116;11.656;2022-09-09T06:28:13;1.90;;;1.00;;
41923;SDS011;27613;48.116;11.656;2022-09-09T06:30:40;4.65;;;1.52;;
41923;SDS011;27613;48.116;11.656;2022-09-09T06:33:07;2.75;;;1.40;;
41923;SDS011;27613;48.116;11.656;2022-09-09T06:35:32;2.55;;;1.20;;
41923;SDS011;27613;48.116;11.656;2022-09-09T06:37:58;4.43;;;1.20;;
41923;SDS011;27613;48.116;11.656;2022-09-09T06:40:24;3.45;;;1.10;;
41923;SDS011;27613;48.116;11.656;2022-09-09T06:42:50;1.48;;;0.95;;
41923;SDS011;27613;48.116;11.656;2022-09-09T06:45:16;3.35;;;1.23;;
41923;SDS011;27613;48.116;11.656;2022-09-09T06:47:42;6.00;;;1.27;;
41923;SDS011;27613;48.116;11.656;2022-09-09T06:50:08;1.92;;;1.13;;
41923;SDS011;27613;48.116;11.656;2022-09-09T06:52:35;5.95;;;0.93;;
41923;SDS011;27613;48.116;11.656;2022-09-09T06:55:01;7.45;;;1.25;;
41923;SDS011;27613;48.116;11.656;2022-09-09T06:57:27;1.38;;;0.80;;
41923;SDS011;27613;48.116;11.656;2022-09-09T06:59:53;2.35;;;0.90;;
41923;SDS011;27613;48.116;11.656;2022-09-09T07:02:18;1.23;;;0.70;;
41923;SDS011;27613;48.116;11.656;2022-09-09T07:04:44;2.75;;;0.88;;
41923;SDS011;27613;48.116;11.656;2022-09-09T07:07:10;1.17;;;0.82;;
41923;SDS011;27613;48.116;11.656;2022-09-09T07:09:38;2.17;;;1.13;;
41923;SDS011;27613;48.116;11.656;2022-09-09T07:12:04;2.10;;;0.93;;
41923;SDS011;27613;48.116;11.656;2022-09-09T07:14:31;2.33;;;0.85;;
41923;SDS011;27613;48.116;11.656;2022-09-09T07:16:57;3.08;;;1.20;;
41923;SDS011;27613;48.116;11.656;2022-09-09T07:19:23;4.50;;;0.90;;
41923;SDS011;27613;48.116;11.656;2022-09-09T07:21:49;1.70;;;0.90;;
41923;SDS011;27613;48.116;11.656;2022-09-09T07:24:15;2.35;;;1.30;;
41923;SDS011;27613;48.116;11.656;2022-09-09T07:26:40;2.22;;;0.93;;
41923;SDS011;27613;48.116;11.656;2022-09-09T07:29:07;4.75;;;1.20;;
41923;SDS011;27613;48.116;11.656;2022-09-09T07:31:34;2.63;;;0.95;;
41923;SDS011;27613;48.116;11.656;2022-09-09T07:34:08;1.15;;;0.70;;
41923;SDS011;27613;48.116;11.656;2022-09-09T07:36:35;2.10;;;0.90;;
41923;SDS011;27613;48.116;11.656;2022-09-09T07:39:04;2.25;;;0.98;;
41923;SDS011;27613;48.116;11.656;2022-09-09T07:41:45;1.38;;;0.90;;
41923;SDS011;27613;48.116;11.656;2022-09-09T07:44:12;4.03;;;1.33;;
41923;SDS011;27613;48.116;11.656;2022-09-09T07:46:40;1.55;;;0.60;;
41923;SDS011;27613;48.116;11.656;2022-09-09T07:49:06;1.27;;;0.93;;
41923;SDS011;27613;48.116;11.656;2022-09-09T07:51:34;2.00;;;1.00;;
41923;SDS011;27613;48.116;11.656;2022-09-09T07:54:02;2.47;;;0.82;;
41923;SDS011;27613;48.116;11.656;2022-09-09T07:56:30;1.67;;;0.77;;
41923;SDS011;27613;48.116;11.656;2022-09-09T07:58:56;1.35;;;0.80;;
41923;SDS011;27613;48.116;11.656;2022-09-09T08:01:25;1.70;;;0.90;;
41923;SDS011;27613;48.116;11.656;2022-09-09T08:03:56;1.63;;;0.88;;
41923;SDS011;27613;48.116;11.656;2022-09-09T08:06:24;2.40;;;0.98;;
41923;SDS011;27613;48.116;11.656;2022-09-09T08:08:52;1.23;;;0.85;;
41923;SDS011;27613;48.116;11.656;2022-09-09T08:11:21;2.30;;;0.88;;
41923;SDS011;27613;48.116;11.656;2022-09-09T08:13:48;1.70;;;0.80;;
41923;SDS011;27613;48.116;11.656;2022-09-09T08:16:20;3.90;;;0.95;;
41923;SDS011;27613;48.116;11.656;2022-09-09T08:18:50;2.67;;;0.98;;
41923;SDS011;27613;48.116;11.656;2022-09-09T08:21:18;3.42;;;1.00;;
41923;SDS011;27613;48.116;11.656;2022-09-09T08:23:45;0.98;;;0.70;;
41923;SDS011;27613;48.116;11.656;2022-09-09T08:26:16;5.70;;;0.65;;
41923;SDS011;27613;48.116;11.656;2022-09-09T08:28:47;3.58;;;1.23;;
41923;SDS011;27613;48.116;11.656;2022-09-09T08:31:16;2.13;;;1.02;;
41923;SDS011;27613;48.116;11.656;2022-09-09T08:33:54;1.35;;;0.95;;
41923;SDS011;27613;48.116;11.656;2022-09-09T08:36:21;1.98;;;0.82;;
41923;SDS011;27613;48.116;11.656;2022-09-09T08:38:49;1.67;;;0.93;;
41923;SDS011;27613;48.116;11.656;2022-09-09T08:43:48;2.70;;;0.95;;
41923;SDS011;27613;48.116;11.656;2022-09-09T08:46:25;1.83;;;0.73;;
41923;SDS011;27613;48.116;11.656;2022-09-09T08:51:57;2.50;;;1.10;;
41923;SDS011;27613;48.116;11.656;2022-09-09T08:54:23;6.60;;;0.93;;
41923;SDS011;27613;48.116;11.656;2022-09-09T08:56:50;2.45;;;0.95;;
41923;SDS011;27613;48.116;11.656;2022-09-09T08:59:17;2.20;;;0.90;;
41923;SDS011;27613;48.116;11.656;2022-09-09T09:01:52;1.42;;;0.85;;
41923;SDS011;27613;48.116;11.656;2022-09-09T09:12:28;1.83;;;0.90;;
41923;SDS011;27613;48.116;11.656;2022-09-09T09:15:00;1.35;;;0.80;;
41923;SDS011;27613;48.116;11.656;2022-09-09T09:17:26;2.65;;;1.10;;
41923;SDS011;27613;48.116;11.656;2022-09-09T09:19:56;1.65;;;1.08;;
41923;SDS011;27613;48.116;11.656;2022-09-09T09:22:33;6.00;;;1.20;;
41923;SDS011;27613;48.116;11.656;2022-09-09T09:25:20;2.05;;;1.00;;
41923;SDS011;27613;48.116;11.656;2022-09-09T09:28:00;2.08;;;1.00;;
41923;SDS011;27613;48.116;11.656;2022-09-09T09:30:36;2.10;;;1.30;;
41923;SDS011;27613;48.116;11.656;2022-09-09T09:33:29;3.25;;;1.30;;
41923;SDS011;27613;48.116;11.656;2022-09-09T09:35:58;2.50;;;1.13;;
41923;SDS011;27613;48.116;11.656;2022-09-09T09:38:25;9.35;;;1.08;;
41923;SDS011;27613;48.116;11.656;2022-09-09T09:40:53;2.25;;;1.30;;
41923;SDS011;27613;48.116;11.656;2022-09-09T09:43:30;2.45;;;1.10;;
41923;SDS011;27613;48.116;11.656;2022-09-09T09:45:57;3.65;;;1.98;;
41923;SDS011;27613;48.116;11.656;2022-09-09T09:48:24;6.28;;;1.40;;
41923;SDS011;27613;48.116;11.656;2022-09-09T09:53:28;3.45;;;1.25;;
41923;SDS011;27613;48.116;11.656;2022-09-09T09:56:02;1.98;;;0.90;;
41923;SDS011;27613;48.116;11.656;2022-09-09T09:58:36;3.45;;;1.25;;
41923;SDS011;27613;48.116;11.656;2022-09-09T10:04:20;1.73;;;1.00;;
41923;SDS011;27613;48.116;11.656;2022-09-09T10:06:48;3.30;;;1.45;;
41923;SDS011;27613;48.116;11.656;2022-09-09T10:14:46;2.47;;;0.80;;
41923;SDS011;27613;48.116;11.656;2022-09-09T10:17:44;2.17;;;1.00;;
41923;SDS011;27613;48.116;11.656;2022-09-09T10:20:27;1.52;;;0.77;;
41923;SDS011;27613;48.116;11.656;2022-09-09T10:23:47;1.67;;;0.90;;
41923;SDS011;27613;48.116;11.656;2022-09-09T10:26:26;2.33;;;1.08;;
41923;SDS011;27613;48.116;11.656;2022-09-09T10:29:39;2.05;;;1.05;;
41923;SDS011;27613;48.116;11.656;2022-09-09T10:57:31;1.50;;;0.90;;
41923;SDS011;27613;48.116;11.656;2022-09-09T11:00:03;1.83;;;0.90;;
41923;SDS011;27613;48.116;11.656;2022-09-09T11:02:33;2.03;;;0.70;;
41923;SDS011;27613;48.116;11.656;2022-09-09T11:05:10;3.65;;;0.73;;
41923;SDS011;27613;48.116;11.656;2022-09-09T11:07:55;3.53;;;0.85;;
41923;SDS011;27613;48.116;11.656;2022-09-09T11:10:40;1.48;;;0.80;;
41923;SDS011;27613;48.116;11.656;2022-09-09T11:13:17;2.03;;;0.93;;
41923;SDS011;27613;48.116;11.656;2022-09-09T11:15:51;3.57;;;0.73;;
41923;SDS011;27613;48.116;11.656;2022-09-09T11:18:22;1.42;;;0.70;;
41923;SDS011;27613;48.116;11.656;2022-09-09T11:20:49;2.03;;;0.85;;
41923;SDS011;27613;48.116;11.656;2022-09-09T11:23:22;2.67;;;0.77;;
41923;SDS011;27613;48.116;11.656;2022-09-09T11:25:54;2.60;;;0.93;;
41923;SDS011;27613;48.116;11.656;2022-09-09T11:34:33;1.17;;;0.73;;
41923;SDS011;27613;48.116;11.656;2022-09-09T11:40:24;0.73;;;0.45;;
41923;SDS011;27613;48.116;11.656;2022-09-09T11:43:02;1.88;;;0.70;;
41923;SDS011;27613;48.116;11.656;2022-09-09T11:45:30;2.15;;;0.50;;
41923;SDS011;27613;48.116;11.656;2022-09-09T11:47:59;0.95;;;0.70;;
41923;SDS011;27613;48.116;11.656;2022-09-09T11:50:31;1.63;;;0.47;;
41923;SDS011;27613;48.116;11.656;2022-09-09T11:55:38;4.53;;;0.80;;
41923;SDS011;27613;48.116;11.656;2022-09-09T11:58:05;1.08;;;0.60;;
41923;SDS011;27613;48.116;11.656;2022-09-09T12:00:42;1.65;;;0.80;;
41923;SDS011;27613;48.116;11.656;2022-09-09T12:06:19;2.72;;;0.88;;
41923;SDS011;27613;48.116;11.656;2022-09-09T12:09:21;1.27;;;0.50;;
41923;SDS011;27613;48.116;11.656;2022-09-09T12:14:43;1.50;;;0.50;;
41923;SDS011;27613;48.116;11.656;2022-09-09T12:17:23;1.67;;;0.70;;
41923;SDS011;27613;48.116;11.656;2022-09-09T12:20:00;1.75;;;0.60;;
41923;SDS011;27613;48.116;11.656;2022-09-09T12:22:59;0.80;;;0.47;;
41923;SDS011;27613;48.116;11.656;2022-09-09T12:28:18;2.70;;;0.40;;
41923;SDS011;27613;48.116;11.656;2022-09-09T12:33:36;1.98;;;0.73;;
41923;SDS011;27613;48.116;11.656;2022-09-09T12:36:09;4.07;;;0.38;;
41923;SDS011;27613;48.116;11.656;2022-09-09T12:38:39;1.48;;;0.65;;
41923;SDS011;27613;48.116;11.656;2022-09-09T12:41:06;1.65;;;0.45;;
41923;SDS011;27613;48.116;11.656;2022-09-09T12:43:44;1.63;;;0.90;;
41923;SDS011;27613;48.116;11.656;2022-09-09T12:46:11;1.17;;;0.60;;
41923;SDS011;27613;48.116;11.656;2022-09-09T12:48:47;1.17;;;0.68;;
41923;SDS011;27613;48.116;11.656;2022-09-09T12:51:21;1.52;;;0.70;;
41923;SDS011;27613;48.116;11.656;2022-09-09T12:53:52;1.95;;;0.65;;
41923;SDS011;27613;48.116;11.656;2022-09-09T12:56:21;0.63;;;0.40;;
41923;SDS011;27613;48.116;11.656;2022-09-09T12:58:51;2.05;;;0.82;;
41923;SDS011;27613;48.116;11.656;2022-09-09T13:01:29;0.93;;;0.50;;
41923;SDS011;27613;48.116;11.656;2022-09-09T13:03:57;1.88;;;0.65;;
41923;SDS011;27613;48.116;11.656;2022-09-09T13:06:24;1.25;;;0.52;;
41923;SDS011;27613;48.116;11.656;2022-09-09T13:08:51;0.98;;;0.50;;
41923;SDS011;27613;48.116;11.656;2022-09-09T13:11:26;1.35;;;0.50;;
41923;SDS011;27613;48.116;11.656;2022-09-09T13:13:53;0.85;;;0.45;;
41923;SDS011;27613;48.116;11.656;2022-09-09T13:16:31;1.85;;;0.70;;
41923;SDS011;27613;48.116;11.656;2022-09-09T13:19:00;1.38;;;0.63;;
41923;SDS011;27613;48.116;11.656;2022-09-09T13:21:32;1.13;;;0.40;;
41923;SDS011;27613;48.116;11.656;2022-09-09T13:24:03;1.33;;;0.50;;
41923;SDS011;27613;48.116;11.656;2022-09-09T13:26:59;0.60;;;0.35;;
41923;SDS011;27613;48.116;11.656;2022-09-09T13:29:27;1.70;;;0.57;;
41923;SDS011;27613;48.116;11.656;2022-09-09T13:31:53;1.02;;;0.50;;
41923;SDS011;27613;48.116;11.656;2022-09-09T13:34:26;1.77;;;0.50;;
41923;SDS011;27613;48.116;11.656;2022-09-09T13:36:55;1.05;;;0.50;;
41923;SDS011;27613;48.116;11.656;2022-09-09T13:39:31;1.40;;;0.50;;
41923;SDS011;27613;48.116;11.656;2022-09-09T13:41:59;0.93;;;0.40;;
41923;SDS011;27613;48.116;11.656;2022-09-09T13:44:31;0.65;;;0.43;;
41923;SDS011;27613;48.116;11.656;2022-09-09T13:47:06;1.20;;;0.50;;
41923;SDS011;27613;48.116;11.656;2022-09-09T13:49:37;0.60;;;0.50;;
41923;SDS011;27613;48.116;11.656;2022-09-09T13:52:04;0.88;;;0.40;;
41923;SDS011;27613;48.116;11.656;2022-09-09T13:54:32;1.88;;;0.70;;
41923;SDS011;27613;48.116;11.656;2022-09-09T13:56:58;1.38;;;0.50;;
41923;SDS011;27613;48.116;11.656;2022-09-09T13:59:24;2.85;;;0.65;;
41923;SDS011;27613;48.116;11.656;2022-09-09T14:01:50;1.75;;;0.52;;
41923;SDS011;27613;48.116;11.656;2022-09-09T14:04:17;1.73;;;0.68;;
41923;SDS011;27613;48.116;11.656;2022-09-09T14:06:43;1.40;;;0.70;;
41923;SDS011;27613;48.116;11.656;2022-09-09T14:09:12;5.28;;;0.75;;
41923;SDS011;27613;48.116;11.656;2022-09-09T14:11:40;0.60;;;0.50;;
41923;SDS011;27613;48.116;11.656;2022-09-09T14:14:06;1.50;;;0.50;;
41923;SDS011;27613;48.116;11.656;2022-09-09T14:16:32;1.58;;;0.70;;
41923;SDS011;27613;48.116;11.656;2022-09-09T14:18:57;3.13;;;1.00;;
41923;SDS011;27613;48.116;11.656;2022-09-09T14:21:24;0.65;;;0.50;;
41923;SDS011;27613;48.116;11.656;2022-09-09T14:23:50;1.70;;;0.68;;
41923;SDS011;27613;48.116;11.656;2022-09-09T14:26:17;1.27;;;0.60;;
41923;SDS011;27613;48.116;11.656;2022-09-09T14:28:45;1.52;;;0.65;;
41923;SDS011;27613;48.116;11.656;2022-09-09T14:31:11;2.20;;;0.77;;
41923;SDS011;27613;48.116;11.656;2022-09-09T14:33:38;1.33;;;0.63;;
41923;SDS011;27613;48.116;11.656;2022-09-09T14:36:04;0.30;;;0.30;;
41923;SDS011;27613;48.116;11.656;2022-09-09T14:38:30;3.80;;;0.80;;
41923;SDS011;27613;48.116;11.656;2022-09-09T14:40:58;0.75;;;0.60;;
41923;SDS011;27613;48.116;11.656;2022-09-09T14:43:24;1.05;;;0.50;;
41923;SDS011;27613;48.116;11.656;2022-09-09T14:45:51;2.63;;;0.93;;
41923;SDS011;27613;48.116;11.656;2022-09-09T14:48:17;2.40;;;0.80;;
41923;SDS011;27613;48.116;11.656;2022-09-09T14:50:43;2.58;;;1.17;;
41923;SDS011;27613;48.116;11.656;2022-09-09T14:53:09;1.02;;;0.57;;
41923;SDS011;27613;48.116;11.656;2022-09-09T14:55:35;0.82;;;0.60;;
41923;SDS011;27613;48.116;11.656;2022-09-09T14:58:01;2.30;;;0.70;;
41923;SDS011;27613;48.116;11.656;2022-09-09T15:00:27;2.08;;;0.60;;
41923;SDS011;27613;48.116;11.656;2022-09-09T15:02:53;1.13;;;0.63;;
41923;SDS011;27613;48.116;11.656;2022-09-09T15:05:19;2.70;;;0.70;;
41923;SDS011;27613;48.116;11.656;2022-09-09T15:07:45;2.80;;;0.90;;
41923;SDS011;27613;48.116;11.656;2022-09-09T15:10:11;2.17;;;0.88;;
41923;SDS011;27613;48.116;11.656;2022-09-09T15:12:37;2.00;;;0.82;;
41923;SDS011;27613;48.116;11.656;2022-09-09T15:15:03;2.15;;;0.80;;
41923;SDS011;27613;48.116;11.656;2022-09-09T15:17:30;28.27;;;1.55;;
41923;SDS011;27613;48.116;11.656;2022-09-09T15:19:55;2.88;;;1.02;;
41923;SDS011;27613;48.116;11.656;2022-09-09T15:22:21;1.92;;;0.80;;
41923;SDS011;27613;48.116;11.656;2022-09-09T15:24:47;4.32;;;1.00;;
41923;SDS011;27613;48.116;11.656;2022-09-09T15:27:13;2.60;;;1.13;;
41923;SDS011;27613;48.116;11.656;2022-09-09T15:29:39;2.20;;;1.20;;
41923;SDS011;27613;48.116;11.656;2022-09-09T15:32:06;3.22;;;0.88;;
41923;SDS011;27613;48.116;11.656;2022-09-09T15:34:32;2.28;;;0.73;;
41923;SDS011;27613;48.116;11.656;2022-09-09T15:36:57;3.72;;;1.00;;
41923;SDS011;27613;48.116;11.656;2022-09-09T15:39:24;4.07;;;0.80;;
41923;SDS011;27613;48.116;11.656;2022-09-09T15:41:51;2.40;;;1.30;;
41923;SDS011;27613;48.116;11.656;2022-09-09T15:44:16;2.25;;;0.75;;
41923;SDS011;27613;48.116;11.656;2022-09-09T15:46:45;1.73;;;0.80;;
41923;SDS011;27613;48.116;11.656;2022-09-09T15:49:14;2.17;;;1.00;;
41923;SDS011;27613;48.116;11.656;2022-09-09T15:51:43;2.28;;;1.10;;
41923;SDS011;27613;48.116;11.656;2022-09-09T15:54:12;1.75;;;0.90;;
41923;SDS011;27613;48.116;11.656;2022-09-09T15:56:43;2.83;;;0.90;;
41923;SDS011;27613;48.116;11.656;2022-09-09T15:59:09;1.08;;;0.70;;
41923;SDS011;27613;48.116;11.656;2022-09-09T16:01:36;2.05;;;0.90;;
41923;SDS011;27613;48.116;11.656;2022-09-09T16:04:02;2.85;;;1.13;;
41923;SDS011;27613;48.116;11.656;2022-09-09T16:06:29;2.97;;;0.82;;
41923;SDS011;27613;48.116;11.656;2022-09-09T16:08:56;2.22;;;0.98;;
41923;SDS011;27613;48.116;11.656;2022-09-09T16:11:24;2.28;;;0.80;;
41923;SDS011;27613;48.116;11.656;2022-09-09T16:13:52;2.60;;;1.00;;
41923;SDS011;27613;48.116;11.656;2022-09-09T16:16:19;3.70;;;0.85;;
41923;SDS011;27613;48.116;11.656;2022-09-09T16:18:49;1.10;;;0.60;;
41923;SDS011;27613;48.116;11.656;2022-09-09T16:21:21;3.35;;;1.08;;
41923;SDS011;27613;48.116;11.656;2022-09-09T16:23:49;3.47;;;1.13;;
41923;SDS011;27613;48.116;11.656;2022-09-09T16:26:20;1.85;;;0.90;;
41923;SDS011;27613;48.116;11.656;2022-09-09T16:28:47;2.17;;;0.90;;
41923;SDS011;27613;48.116;11.656;2022-09-09T16:31:15;1.88;;;0.70;;
41923;SDS011;27613;48.116;11.656;2022-09-09T16:33:43;1.52;;;0.85;;
41923;SDS011;27613;48.116;11.656;2022-09-09T16:36:10;2.70;;;0.73;;
41923;SDS011;27613;48.116;11.656;2022-09-09T16:38:37;1.00;;;0.70;;
41923;SDS011;27613;48.116;11.656;2022-09-09T16:41:04;1.77;;;0.90;;
41923;SDS011;27613;48.116;11.656;2022-09-09T16:43:31;2.20;;;1.05;;
41923;SDS011;27613;48.116;11.656;2022-09-09T16:45:58;3.13;;;0.80;;
41923;SDS011;27613;48.116;11.656;2022-09-09T16:48:25;1.67;;;0.65;;